logo
Rechercher aéroport 
image banner adimage banner adimage banner ad
image banner ad

1CA3 - G S A Laguna Niguel G/L Helistop

Situé à South Laguna Beach, United States

ICAO - 1CA3, IATA -

Données fournies par Airmate  

Information générale

Coordonnées: N33°33'41" W117°42'55"
Élévation : 188 feet MSL.
Variation magnétique : 14° East
Voir autres Aéroports à California

Données opérationnelles

Special qualification required
Heure actuelle UTC:
Heure actuelle locale:
METAR: KSNA 011729Z 00000KT 10SM OVC025 22/14 A2990 RMK AO2 T02220139
TAF: KSNA 011126Z 0112/0212 VRB04KT P6SM OVC020 FM011800 21008KT P6SM FEW025 FM020500 VRB04KT P6SM BKN022
Voir NOTAMs / SUP AIP / TFR affectant cet aéroport [VIEW]
Fréquences de communication: [VIEW]

Pistes:

Coordonnées de l'aéroport

Adresse: South Laguna Beach United States

Vue satellite de 1CA3